sensor_id;sensor_type;location;lat;lon;timestamp;temperature;humidity
5258;DHT22;2651;51.594;9.928;2022-11-27T00:00:04;6.50;99.90
5258;DHT22;2651;51.594;9.928;2022-11-27T00:01:10;6.50;99.90
5258;DHT22;2651;51.594;9.928;2022-11-27T00:02:12;6.50;99.90
5258;DHT22;2651;51.594;9.928;2022-11-27T00:03:14;6.50;99.90
5258;DHT22;2651;51.594;9.928;2022-11-27T00:04:16;6.50;99.90
5258;DHT22;2651;51.594;9.928;2022-11-27T00:05:18;6.50;99.90
5258;DHT22;2651;51.594;9.928;2022-11-27T00:06:22;6.50;99.90
5258;DHT22;2651;51.594;9.928;2022-11-27T00:07:23;6.50;99.90
5258;DHT22;2651;51.594;9.928;2022-11-27T00:08:25;6.40;99.90
5258;DHT22;2651;51.594;9.928;2022-11-27T00:09:27;6.40;99.90
5258;DHT22;2651;51.594;9.928;2022-11-27T00:10:29;6.40;99.90
5258;DHT22;2651;51.594;9.928;2022-11-27T00:11:31;6.40;99.90
5258;DHT22;2651;51.594;9.928;2022-11-27T00:12:32;6.40;99.90
5258;DHT22;2651;51.594;9.928;2022-11-27T00:13:35;6.50;99.90
5258;DHT22;2651;51.594;9.928;2022-11-27T00:14:37;6.40;99.90
5258;DHT22;2651;51.594;9.928;2022-11-27T00:15:38;6.40;99.90
5258;DHT22;2651;51.594;9.928;2022-11-27T00:16:40;6.40;99.90
5258;DHT22;2651;51.594;9.928;2022-11-27T00:17:42;6.40;99.90
5258;DHT22;2651;51.594;9.928;2022-11-27T00:18:44;6.40;99.90
5258;DHT22;2651;51.594;9.928;2022-11-27T00:19:46;6.40;99.90
5258;DHT22;2651;51.594;9.928;2022-11-27T00:20:47;6.40;99.90
5258;DHT22;2651;51.594;9.928;2022-11-27T00:21:49;6.50;99.90
5258;DHT22;2651;51.594;9.928;2022-11-27T00:22:51;6.50;99.90
5258;DHT22;2651;51.594;9.928;2022-11-27T00:23:54;6.50;99.90
5258;DHT22;2651;51.594;9.928;2022-11-27T00:24:56;6.40;99.90
5258;DHT22;2651;51.594;9.928;2022-11-27T00:25:57;6.40;99.90
5258;DHT22;2651;51.594;9.928;2022-11-27T00:26:59;6.40;99.90
5258;DHT22;2651;51.594;9.928;2022-11-27T00:28:01;6.40;99.90
5258;DHT22;2651;51.594;9.928;2022-11-27T00:29:02;6.30;99.90
5258;DHT22;2651;51.594;9.928;2022-11-27T00:30:04;6.30;99.90
5258;DHT22;2651;51.594;9.928;2022-11-27T00:31:17;6.30;99.90
5258;DHT22;2651;51.594;9.928;2022-11-27T00:32:19;6.40;99.90
5258;DHT22;2651;51.594;9.928;2022-11-27T00:33:21;6.40;99.90
5258;DHT22;2651;51.594;9.928;2022-11-27T00:34:22;6.40;99.90
5258;DHT22;2651;51.594;9.928;2022-11-27T00:35:24;6.40;99.90
5258;DHT22;2651;51.594;9.928;2022-11-27T00:36:27;6.40;99.90
5258;DHT22;2651;51.594;9.928;2022-11-27T00:37:29;6.40;99.90
5258;DHT22;2651;51.594;9.928;2022-11-27T00:38:31;6.30;99.90
5258;DHT22;2651;51.594;9.928;2022-11-27T00:39:39;6.30;99.90
5258;DHT22;2651;51.594;9.928;2022-11-27T00:40:40;6.30;99.90
5258;DHT22;2651;51.594;9.928;2022-11-27T00:41:42;6.40;99.90
5258;DHT22;2651;51.594;9.928;2022-11-27T00:42:44;6.40;99.90
5258;DHT22;2651;51.594;9.928;2022-11-27T00:43:46;6.40;99.90
5258;DHT22;2651;51.594;9.928;2022-11-27T00:44:47;6.40;99.90
5258;DHT22;2651;51.594;9.928;2022-11-27T00:45:49;6.40;99.90
5258;DHT22;2651;51.594;9.928;2022-11-27T00:46:51;6.30;99.90
5258;DHT22;2651;51.594;9.928;2022-11-27T00:47:53;6.30;99.90
5258;DHT22;2651;51.594;9.928;2022-11-27T00:48:58;6.30;99.90
5258;DHT22;2651;51.594;9.928;2022-11-27T00:50:00;6.30;99.90
5258;DHT22;2651;51.594;9.928;2022-11-27T00:51:04;6.30;99.90
5258;DHT22;2651;51.594;9.928;2022-11-27T00:52:05;6.30;99.90
5258;DHT22;2651;51.594;9.928;2022-11-27T00:53:07;6.30;99.90
5258;DHT22;2651;51.594;9.928;2022-11-27T00:54:09;6.30;99.90
5258;DHT22;2651;51.594;9.928;2022-11-27T00:55:11;6.30;99.90
5258;DHT22;2651;51.594;9.928;2022-11-27T00:56:18;6.30;99.90
5258;DHT22;2651;51.594;9.928;2022-11-27T00:57:20;6.30;99.90
5258;DHT22;2651;51.594;9.928;2022-11-27T00:58:22;6.30;99.90
5258;DHT22;2651;51.594;9.928;2022-11-27T00:59:24;6.30;99.90
5258;DHT22;2651;51.594;9.928;2022-11-27T01:00:26;6.30;99.90
5258;DHT22;2651;51.594;9.928;2022-11-27T01:01:37;6.30;99.90
5258;DHT22;2651;51.594;9.928;2022-11-27T01:02:39;6.30;99.90
5258;DHT22;2651;51.594;9.928;2022-11-27T01:03:41;6.30;99.90
5258;DHT22;2651;51.594;9.928;2022-11-27T01:04:46;6.30;99.90
5258;DHT22;2651;51.594;9.928;2022-11-27T01:05:49;6.30;99.90
5258;DHT22;2651;51.594;9.928;2022-11-27T01:06:50;6.30;99.90
5258;DHT22;2651;51.594;9.928;2022-11-27T01:07:52;6.30;99.90
5258;DHT22;2651;51.594;9.928;2022-11-27T01:08:54;6.30;99.90
5258;DHT22;2651;51.594;9.928;2022-11-27T01:09:56;6.30;99.90
5258;DHT22;2651;51.594;9.928;2022-11-27T01:10:58;6.30;99.90
5258;DHT22;2651;51.594;9.928;2022-11-27T01:12:00;6.30;99.90
5258;DHT22;2651;51.594;9.928;2022-11-27T01:13:02;6.30;99.90
5258;DHT22;2651;51.594;9.928;2022-11-27T01:14:14;6.30;99.90
5258;DHT22;2651;51.594;9.928;2022-11-27T01:15:16;6.20;99.90
5258;DHT22;2651;51.594;9.928;2022-11-27T01:16:20;6.20;99.90
5258;DHT22;2651;51.594;9.928;2022-11-27T01:17:22;6.20;99.90
5258;DHT22;2651;51.594;9.928;2022-11-27T01:18:24;6.20;99.90
5258;DHT22;2651;51.594;9.928;2022-11-27T01:19:26;6.20;99.90
5258;DHT22;2651;51.594;9.928;2022-11-27T01:20:27;6.20;99.90
5258;DHT22;2651;51.594;9.928;2022-11-27T01:21:31;6.20;99.90
5258;DHT22;2651;51.594;9.928;2022-11-27T01:22:33;6.20;99.90
5258;DHT22;2651;51.594;9.928;2022-11-27T01:23:35;6.20;99.90
5258;DHT22;2651;51.594;9.928;2022-11-27T01:24:37;6.20;99.90
5258;DHT22;2651;51.594;9.928;2022-11-27T01:25:39;6.20;99.90
5258;DHT22;2651;51.594;9.928;2022-11-27T01:26:42;6.20;99.90
5258;DHT22;2651;51.594;9.928;2022-11-27T01:27:43;6.20;99.90
5258;DHT22;2651;51.594;9.928;2022-11-27T01:28:45;6.20;99.90
5258;DHT22;2651;51.594;9.928;2022-11-27T01:29:47;6.20;99.90
5258;DHT22;2651;51.594;9.928;2022-11-27T01:30:49;6.20;99.90
5258;DHT22;2651;51.594;9.928;2022-11-27T01:31:51;6.20;99.90
5258;DHT22;2651;51.594;9.928;2022-11-27T01:32:53;6.20;99.90
5258;DHT22;2651;51.594;9.928;2022-11-27T01:33:57;6.20;99.90
5258;DHT22;2651;51.594;9.928;2022-11-27T01:34:59;6.20;99.90
5258;DHT22;2651;51.594;9.928;2022-11-27T01:36:03;6.20;99.90
5258;DHT22;2651;51.594;9.928;2022-11-27T01:37:05;6.10;99.90
5258;DHT22;2651;51.594;9.928;2022-11-27T01:38:06;6.20;99.90
5258;DHT22;2651;51.594;9.928;2022-11-27T01:39:14;6.20;99.90
5258;DHT22;2651;51.594;9.928;2022-11-27T01:40:16;6.20;99.90
5258;DHT22;2651;51.594;9.928;2022-11-27T01:41:20;6.20;99.90
5258;DHT22;2651;51.594;9.928;2022-11-27T01:42:22;6.20;99.90
5258;DHT22;2651;51.594;9.928;2022-11-27T01:43:37;6.20;99.90
5258;DHT22;2651;51.594;9.928;2022-11-27T01:44:49;6.20;99.90
5258;DHT22;2651;51.594;9.928;2022-11-27T01:45:50;6.20;99.90
5258;DHT22;2651;51.594;9.928;2022-11-27T01:47:00;6.20;99.90
5258;DHT22;2651;51.594;9.928;2022-11-27T01:48:03;6.20;99.90
5258;DHT22;2651;51.594;9.928;2022-11-27T01:50:17;6.20;99.90
5258;DHT22;2651;51.594;9.928;2022-11-27T01:51:20;6.20;99.90
5258;DHT22;2651;51.594;9.928;2022-11-27T01:52:27;6.20;99.90
5258;DHT22;2651;51.594;9.928;2022-11-27T01:53:30;6.20;99.90
5258;DHT22;2651;51.594;9.928;2022-11-27T01:54:36;6.20;99.90
5258;DHT22;2651;51.594;9.928;2022-11-27T01:55:47;6.20;99.90
5258;DHT22;2651;51.594;9.928;2022-11-27T01:56:53;6.20;99.90
5258;DHT22;2651;51.594;9.928;2022-11-27T01:58:06;6.20;99.90
5258;DHT22;2651;51.594;9.928;2022-11-27T01:59:08;6.20;99.90
5258;DHT22;2651;51.594;9.928;2022-11-27T02:00:11;6.10;99.90
5258;DHT22;2651;51.594;9.928;2022-11-27T02:01:14;6.10;99.90
5258;DHT22;2651;51.594;9.928;2022-11-27T02:02:16;6.10;99.90
5258;DHT22;2651;51.594;9.928;2022-11-27T02:03:18;6.10;99.90
5258;DHT22;2651;51.594;9.928;2022-11-27T02:04:20;6.00;99.90
5258;DHT22;2651;51.594;9.928;2022-11-27T02:05:24;6.10;99.90
5258;DHT22;2651;51.594;9.928;2022-11-27T02:06:26;6.10;99.90
5258;DHT22;2651;51.594;9.928;2022-11-27T02:07:28;6.20;99.90
5258;DHT22;2651;51.594;9.928;2022-11-27T02:08:30;6.20;99.90
5258;DHT22;2651;51.594;9.928;2022-11-27T02:09:32;6.20;99.90
5258;DHT22;2651;51.594;9.928;2022-11-27T02:10:50;6.20;99.90
5258;DHT22;2651;51.594;9.928;2022-11-27T02:12:18;6.20;99.90
5258;DHT22;2651;51.594;9.928;2022-11-27T02:13:30;6.20;99.90
5258;DHT22;2651;51.594;9.928;2022-11-27T02:14:48;6.20;99.90
5258;DHT22;2651;51.594;9.928;2022-11-27T02:17:12;6.20;99.90
5258;DHT22;2651;51.594;9.928;2022-11-27T02:21:37;6.20;99.90
5258;DHT22;2651;51.594;9.928;2022-11-27T02:25:44;6.20;99.90
5258;DHT22;2651;51.594;9.928;2022-11-27T02:28:31;6.20;99.90
5258;DHT22;2651;51.594;9.928;2022-11-27T02:29:35;6.20;99.90
5258;DHT22;2651;51.594;9.928;2022-11-27T02:30:43;6.20;99.90
5258;DHT22;2651;51.594;9.928;2022-11-27T02:32:10;6.20;99.90
5258;DHT22;2651;51.594;9.928;2022-11-27T02:33:19;6.20;99.90
5258;DHT22;2651;51.594;9.928;2022-11-27T02:35:00;6.20;99.90
5258;DHT22;2651;51.594;9.928;2022-11-27T02:35:58;6.20;99.90
5258;DHT22;2651;51.594;9.928;2022-11-27T02:37:44;6.20;99.90
5258;DHT22;2651;51.594;9.928;2022-11-27T02:38:46;6.30;99.90
5258;DHT22;2651;51.594;9.928;2022-11-27T02:41:29;6.30;99.90
5258;DHT22;2651;51.594;9.928;2022-11-27T02:42:45;6.20;99.90
5258;DHT22;2651;51.594;9.928;2022-11-27T02:43:49;6.30;99.90
5258;DHT22;2651;51.594;9.928;2022-11-27T02:44:57;6.20;99.90
5258;DHT22;2651;51.594;9.928;2022-11-27T02:46:03;6.20;99.90
5258;DHT22;2651;51.594;9.928;2022-11-27T02:47:06;6.20;99.90
5258;DHT22;2651;51.594;9.928;2022-11-27T02:48:09;6.20;99.90
5258;DHT22;2651;51.594;9.928;2022-11-27T02:49:15;6.20;99.90
5258;DHT22;2651;51.594;9.928;2022-11-27T02:50:20;6.20;99.90
5258;DHT22;2651;51.594;9.928;2022-11-27T02:51:31;6.30;99.90
5258;DHT22;2651;51.594;9.928;2022-11-27T02:52:37;6.20;99.90
5258;DHT22;2651;51.594;9.928;2022-11-27T02:53:47;6.20;99.90
5258;DHT22;2651;51.594;9.928;2022-11-27T02:54:51;6.20;99.90
5258;DHT22;2651;51.594;9.928;2022-11-27T02:55:55;6.20;99.90
5258;DHT22;2651;51.594;9.928;2022-11-27T02:57:01;6.20;99.90
5258;DHT22;2651;51.594;9.928;2022-11-27T02:58:09;6.20;99.90
5258;DHT22;2651;51.594;9.928;2022-11-27T02:59:13;6.20;99.90
5258;DHT22;2651;51.594;9.928;2022-11-27T03:00:16;6.20;99.90
5258;DHT22;2651;51.594;9.928;2022-11-27T03:01:19;6.20;99.90
5258;DHT22;2651;51.594;9.928;2022-11-27T03:02:27;6.20;99.90
5258;DHT22;2651;51.594;9.928;2022-11-27T03:03:36;6.20;99.90
5258;DHT22;2651;51.594;9.928;2022-11-27T03:04:46;6.20;99.90
5258;DHT22;2651;51.594;9.928;2022-11-27T03:05:50;6.20;99.90
5258;DHT22;2651;51.594;9.928;2022-11-27T03:06:56;6.20;99.90
5258;DHT22;2651;51.594;9.928;2022-11-27T03:08:07;6.20;99.90
5258;DHT22;2651;51.594;9.928;2022-11-27T03:09:16;6.20;99.90
5258;DHT22;2651;51.594;9.928;2022-11-27T03:10:29;6.20;99.90
5258;DHT22;2651;51.594;9.928;2022-11-27T03:11:32;6.10;99.90
5258;DHT22;2651;51.594;9.928;2022-11-27T03:12:35;6.10;99.90
5258;DHT22;2651;51.594;9.928;2022-11-27T03:13:43;6.10;99.90
5258;DHT22;2651;51.594;9.928;2022-11-27T03:14:47;6.00;99.90
5258;DHT22;2651;51.594;9.928;2022-11-27T03:15:58;6.00;99.90
5258;DHT22;2651;51.594;9.928;2022-11-27T03:18:48;5.90;99.90
5258;DHT22;2651;51.594;9.928;2022-11-27T03:20:00;5.90;99.90
5258;DHT22;2651;51.594;9.928;2022-11-27T03:22:33;5.70;99.90
5258;DHT22;2651;51.594;9.928;2022-11-27T03:23:35;5.60;99.90
5258;DHT22;2651;51.594;9.928;2022-11-27T03:24:37;5.50;99.90
5258;DHT22;2651;51.594;9.928;2022-11-27T03:25:39;5.50;99.90
5258;DHT22;2651;51.594;9.928;2022-11-27T03:26:41;5.50;99.90
5258;DHT22;2651;51.594;9.928;2022-11-27T03:27:51;5.40;99.90
5258;DHT22;2651;51.594;9.928;2022-11-27T03:28:55;5.40;99.90
5258;DHT22;2651;51.594;9.928;2022-11-27T03:30:01;5.40;99.90
5258;DHT22;2651;51.594;9.928;2022-11-27T03:31:03;5.30;99.90
5258;DHT22;2651;51.594;9.928;2022-11-27T03:32:06;5.20;99.90
5258;DHT22;2651;51.594;9.928;2022-11-27T03:33:08;5.20;99.90
5258;DHT22;2651;51.594;9.928;2022-11-27T03:34:10;5.20;99.90
5258;DHT22;2651;51.594;9.928;2022-11-27T03:35:15;5.10;99.90
5258;DHT22;2651;51.594;9.928;2022-11-27T03:36:19;5.00;99.90
5258;DHT22;2651;51.594;9.928;2022-11-27T03:37:21;4.90;99.90
5258;DHT22;2651;51.594;9.928;2022-11-27T03:38:23;4.90;99.90
5258;DHT22;2651;51.594;9.928;2022-11-27T03:39:26;4.80;99.90
5258;DHT22;2651;51.594;9.928;2022-11-27T03:40:50;4.80;99.90
5258;DHT22;2651;51.594;9.928;2022-11-27T03:42:00;4.70;99.90
5258;DHT22;2651;51.594;9.928;2022-11-27T03:44:21;4.70;99.90
5258;DHT22;2651;51.594;9.928;2022-11-27T03:45:48;4.60;99.90
5258;DHT22;2651;51.594;9.928;2022-11-27T03:48:35;4.60;99.90
5258;DHT22;2651;51.594;9.928;2022-11-27T03:51:13;4.50;99.90
5258;DHT22;2651;51.594;9.928;2022-11-27T03:55:22;4.30;99.90
5258;DHT22;2651;51.594;9.928;2022-11-27T03:56:42;4.20;99.90
5258;DHT22;2651;51.594;9.928;2022-11-27T03:59:24;4.20;99.90
5258;DHT22;2651;51.594;9.928;2022-11-27T04:00:23;4.20;99.90
5258;DHT22;2651;51.594;9.928;2022-11-27T04:01:26;4.20;99.90
5258;DHT22;2651;51.594;9.928;2022-11-27T04:02:38;4.10;99.90
5258;DHT22;2651;51.594;9.928;2022-11-27T04:03:40;4.10;99.90
5258;DHT22;2651;51.594;9.928;2022-11-27T04:04:42;4.00;99.90
5258;DHT22;2651;51.594;9.928;2022-11-27T04:05:43;4.00;99.90
5258;DHT22;2651;51.594;9.928;2022-11-27T04:06:45;4.00;99.90
5258;DHT22;2651;51.594;9.928;2022-11-27T04:07:47;4.00;99.90
5258;DHT22;2651;51.594;9.928;2022-11-27T04:08:48;4.00;99.90
5258;DHT22;2651;51.594;9.928;2022-11-27T04:09:51;4.00;99.90
5258;DHT22;2651;51.594;9.928;2022-11-27T04:10:52;4.00;99.90
5258;DHT22;2651;51.594;9.928;2022-11-27T04:11:54;4.00;99.90
5258;DHT22;2651;51.594;9.928;2022-11-27T04:12:55;3.90;99.90
5258;DHT22;2651;51.594;9.928;2022-11-27T04:13:57;3.90;99.90
5258;DHT22;2651;51.594;9.928;2022-11-27T04:14:59;3.90;99.90
5258;DHT22;2651;51.594;9.928;2022-11-27T04:16:01;3.90;99.90
5258;DHT22;2651;51.594;9.928;2022-11-27T04:17:03;3.80;99.90
5258;DHT22;2651;51.594;9.928;2022-11-27T04:18:05;3.80;99.90
5258;DHT22;2651;51.594;9.928;2022-11-27T04:19:06;3.80;99.90
5258;DHT22;2651;51.594;9.928;2022-11-27T04:20:13;3.90;99.90
5258;DHT22;2651;51.594;9.928;2022-11-27T04:21:15;3.80;99.90
5258;DHT22;2651;51.594;9.928;2022-11-27T04:22:18;3.80;99.90
5258;DHT22;2651;51.594;9.928;2022-11-27T04:23:19;3.80;99.90
5258;DHT22;2651;51.594;9.928;2022-11-27T04:24:21;3.90;99.90
5258;DHT22;2651;51.594;9.928;2022-11-27T04:25:23;3.90;99.90
5258;DHT22;2651;51.594;9.928;2022-11-27T04:26:24;3.90;99.90
5258;DHT22;2651;51.594;9.928;2022-11-27T04:27:26;4.00;99.90
5258;DHT22;2651;51.594;9.928;2022-11-27T04:28:27;4.00;99.90
5258;DHT22;2651;51.594;9.928;2022-11-27T04:29:29;4.00;99.90
5258;DHT22;2651;51.594;9.928;2022-11-27T04:30:31;4.00;99.90
5258;DHT22;2651;51.594;9.928;2022-11-27T04:31:32;3.90;99.90
5258;DHT22;2651;51.594;9.928;2022-11-27T04:32:34;3.90;99.90
5258;DHT22;2651;51.594;9.928;2022-11-27T04:33:36;3.90;99.90
5258;DHT22;2651;51.594;9.928;2022-11-27T04:34:38;3.90;99.90
5258;DHT22;2651;51.594;9.928;2022-11-27T04:35:40;3.90;99.90
5258;DHT22;2651;51.594;9.928;2022-11-27T04:36:41;3.90;99.90
5258;DHT22;2651;51.594;9.928;2022-11-27T04:37:43;3.90;99.90
5258;DHT22;2651;51.594;9.928;2022-11-27T04:38:44;3.90;99.90
5258;DHT22;2651;51.594;9.928;2022-11-27T04:39:46;3.90;99.90
5258;DHT22;2651;51.594;9.928;2022-11-27T04:40:50;3.80;99.90
5258;DHT22;2651;51.594;9.928;2022-11-27T04:41:52;3.80;99.90
5258;DHT22;2651;51.594;9.928;2022-11-27T04:42:54;3.80;99.90
5258;DHT22;2651;51.594;9.928;2022-11-27T04:43:56;3.80;99.90
5258;DHT22;2651;51.594;9.928;2022-11-27T04:44:57;3.80;99.90
5258;DHT22;2651;51.594;9.928;2022-11-27T04:45:59;3.80;99.90
5258;DHT22;2651;51.594;9.928;2022-11-27T04:47:00;3.80;99.90
5258;DHT22;2651;51.594;9.928;2022-11-27T04:48:04;3.80;99.90
5258;DHT22;2651;51.594;9.928;2022-11-27T04:49:06;3.70;99.90
5258;DHT22;2651;51.594;9.928;2022-11-27T04:50:08;3.70;99.90
5258;DHT22;2651;51.594;9.928;2022-11-27T04:51:11;3.70;99.90
5258;DHT22;2651;51.594;9.928;2022-11-27T04:52:12;3.60;99.90
5258;DHT22;2651;51.594;9.928;2022-11-27T04:53:14;3.60;99.90
5258;DHT22;2651;51.594;9.928;2022-11-27T04:54:16;3.60;99.90
5258;DHT22;2651;51.594;9.928;2022-11-27T04:55:18;3.50;99.90
5258;DHT22;2651;51.594;9.928;2022-11-27T04:56:20;3.50;99.90
5258;DHT22;2651;51.594;9.928;2022-11-27T04:57:22;3.60;99.90
5258;DHT22;2651;51.594;9.928;2022-11-27T04:58:23;3.60;99.90
5258;DHT22;2651;51.594;9.928;2022-11-27T04:59:25;3.50;99.90
5258;DHT22;2651;51.594;9.928;2022-11-27T05:00:27;3.50;99.90
5258;DHT22;2651;51.594;9.928;2022-11-27T05:01:28;3.40;99.90
5258;DHT22;2651;51.594;9.928;2022-11-27T05:02:30;3.30;99.90
5258;DHT22;2651;51.594;9.928;2022-11-27T05:03:32;3.30;99.90
5258;DHT22;2651;51.594;9.928;2022-11-27T05:04:34;3.30;99.90
5258;DHT22;2651;51.594;9.928;2022-11-27T05:05:44;3.50;99.90
5258;DHT22;2651;51.594;9.928;2022-11-27T05:06:46;3.60;99.90
5258;DHT22;2651;51.594;9.928;2022-11-27T05:07:48;3.60;99.90
5258;DHT22;2651;51.594;9.928;2022-11-27T05:08:49;3.70;99.90
5258;DHT22;2651;51.594;9.928;2022-11-27T05:09:51;3.60;99.90
5258;DHT22;2651;51.594;9.928;2022-11-27T05:11:04;3.60;99.90
5258;DHT22;2651;51.594;9.928;2022-11-27T05:12:06;3.70;99.90
5258;DHT22;2651;51.594;9.928;2022-11-27T05:13:08;3.70;99.90
5258;DHT22;2651;51.594;9.928;2022-11-27T05:14:09;3.70;99.90
5258;DHT22;2651;51.594;9.928;2022-11-27T05:15:18;3.90;99.90
5258;DHT22;2651;51.594;9.928;2022-11-27T05:16:19;4.00;99.90
5258;DHT22;2651;51.594;9.928;2022-11-27T05:17:21;4.00;99.90
5258;DHT22;2651;51.594;9.928;2022-11-27T05:18:23;4.00;99.90
5258;DHT22;2651;51.594;9.928;2022-11-27T05:19:27;4.10;99.90
5258;DHT22;2651;51.594;9.928;2022-11-27T05:20:29;4.20;99.90
5258;DHT22;2651;51.594;9.928;2022-11-27T05:21:38;4.20;99.90
5258;DHT22;2651;51.594;9.928;2022-11-27T05:22:51;4.20;99.90
5258;DHT22;2651;51.594;9.928;2022-11-27T05:23:53;4.20;99.90
5258;DHT22;2651;51.594;9.928;2022-11-27T05:24:54;4.30;99.90
5258;DHT22;2651;51.594;9.928;2022-11-27T05:25:56;4.30;99.90
5258;DHT22;2651;51.594;9.928;2022-11-27T05:26:58;4.30;99.90
5258;DHT22;2651;51.594;9.928;2022-11-27T05:27:59;4.40;99.90
5258;DHT22;2651;51.594;9.928;2022-11-27T05:29:01;4.30;99.90
5258;DHT22;2651;51.594;9.928;2022-11-27T05:30:04;4.30;99.90
5258;DHT22;2651;51.594;9.928;2022-11-27T05:31:06;4.30;99.90
5258;DHT22;2651;51.594;9.928;2022-11-27T05:32:07;4.30;99.90
5258;DHT22;2651;51.594;9.928;2022-11-27T05:33:09;4.30;99.90
5258;DHT22;2651;51.594;9.928;2022-11-27T05:34:11;4.30;99.90
5258;DHT22;2651;51.594;9.928;2022-11-27T05:35:13;4.30;99.90
5258;DHT22;2651;51.594;9.928;2022-11-27T05:36:14;4.30;99.90
5258;DHT22;2651;51.594;9.928;2022-11-27T05:37:16;4.30;99.90
5258;DHT22;2651;51.594;9.928;2022-11-27T05:38:20;4.30;99.90
5258;DHT22;2651;51.594;9.928;2022-11-27T05:39:22;4.30;99.90
5258;DHT22;2651;51.594;9.928;2022-11-27T05:40:24;4.30;99.90
5258;DHT22;2651;51.594;9.928;2022-11-27T05:41:26;4.30;99.90
5258;DHT22;2651;51.594;9.928;2022-11-27T05:42:27;4.40;99.90
5258;DHT22;2651;51.594;9.928;2022-11-27T05:43:29;4.30;99.90
5258;DHT22;2651;51.594;9.928;2022-11-27T05:44:31;4.30;99.90
5258;DHT22;2651;51.594;9.928;2022-11-27T05:45:33;4.30;99.90
5258;DHT22;2651;51.594;9.928;2022-11-27T05:46:34;4.30;99.90
5258;DHT22;2651;51.594;9.928;2022-11-27T05:47:38;4.30;99.90
5258;DHT22;2651;51.594;9.928;2022-11-27T05:48:40;4.30;99.90
5258;DHT22;2651;51.594;9.928;2022-11-27T05:49:41;4.30;99.90
5258;DHT22;2651;51.594;9.928;2022-11-27T05:50:43;4.30;99.90
5258;DHT22;2651;51.594;9.928;2022-11-27T05:51:45;4.30;99.90
5258;DHT22;2651;51.594;9.928;2022-11-27T05:52:52;4.30;99.90
5258;DHT22;2651;51.594;9.928;2022-11-27T05:53:54;4.30;99.90
5258;DHT22;2651;51.594;9.928;2022-11-27T05:54:55;4.30;99.90
5258;DHT22;2651;51.594;9.928;2022-11-27T05:56:09;4.30;99.90
5258;DHT22;2651;51.594;9.928;2022-11-27T05:57:10;4.30;99.90
5258;DHT22;2651;51.594;9.928;2022-11-27T05:58:12;4.20;99.90
5258;DHT22;2651;51.594;9.928;2022-11-27T05:59:14;4.20;99.90
5258;DHT22;2651;51.594;9.928;2022-11-27T06:00:16;4.20;99.90
5258;DHT22;2651;51.594;9.928;2022-11-27T06:01:18;4.20;99.90
5258;DHT22;2651;51.594;9.928;2022-11-27T06:02:20;4.20;99.90
5258;DHT22;2651;51.594;9.928;2022-11-27T06:03:29;4.20;99.90
5258;DHT22;2651;51.594;9.928;2022-11-27T06:04:32;4.30;99.90
5258;DHT22;2651;51.594;9.928;2022-11-27T06:05:38;4.30;99.90
5258;DHT22;2651;51.594;9.928;2022-11-27T06:06:40;4.20;99.90
5258;DHT22;2651;51.594;9.928;2022-11-27T06:07:42;4.20;99.90
5258;DHT22;2651;51.594;9.928;2022-11-27T06:08:44;4.20;99.90
5258;DHT22;2651;51.594;9.928;2022-11-27T06:09:46;4.20;99.90
5258;DHT22;2651;51.594;9.928;2022-11-27T06:10:48;4.20;99.90
5258;DHT22;2651;51.594;9.928;2022-11-27T06:11:50;4.20;99.90
5258;DHT22;2651;51.594;9.928;2022-11-27T06:12:52;4.30;99.90
5258;DHT22;2651;51.594;9.928;2022-11-27T06:13:53;4.20;99.90
5258;DHT22;2651;51.594;9.928;2022-11-27T06:14:55;4.20;99.90
5258;DHT22;2651;51.594;9.928;2022-11-27T06:15:57;4.20;99.90
5258;DHT22;2651;51.594;9.928;2022-11-27T06:16:58;4.20;99.90
5258;DHT22;2651;51.594;9.928;2022-11-27T06:18:00;4.20;99.90
5258;DHT22;2651;51.594;9.928;2022-11-27T06:19:02;4.30;99.90
5258;DHT22;2651;51.594;9.928;2022-11-27T06:20:09;4.30;99.90
5258;DHT22;2651;51.594;9.928;2022-11-27T06:21:13;4.30;99.90
5258;DHT22;2651;51.594;9.928;2022-11-27T06:22:15;4.30;99.90
5258;DHT22;2651;51.594;9.928;2022-11-27T06:23:16;4.30;99.90
5258;DHT22;2651;51.594;9.928;2022-11-27T06:24:19;4.40;99.90
5258;DHT22;2651;51.594;9.928;2022-11-27T06:25:21;4.40;99.90
5258;DHT22;2651;51.594;9.928;2022-11-27T06:26:25;4.40;99.90
5258;DHT22;2651;51.594;9.928;2022-11-27T06:27:32;4.50;99.90
5258;DHT22;2651;51.594;9.928;2022-11-27T06:28:34;4.50;99.90
5258;DHT22;2651;51.594;9.928;2022-11-27T06:29:36;4.50;99.90
5258;DHT22;2651;51.594;9.928;2022-11-27T06:30:38;4.60;99.90
5258;DHT22;2651;51.594;9.928;2022-11-27T06:31:44;4.60;99.90
5258;DHT22;2651;51.594;9.928;2022-11-27T06:32:45;4.60;99.90
5258;DHT22;2651;51.594;9.928;2022-11-27T06:33:49;4.70;99.90
5258;DHT22;2651;51.594;9.928;2022-11-27T06:34:51;4.70;99.90
5258;DHT22;2651;51.594;9.928;2022-11-27T06:35:54;4.70;99.90
5258;DHT22;2651;51.594;9.928;2022-11-27T06:36:55;4.70;99.90
5258;DHT22;2651;51.594;9.928;2022-11-27T06:37:57;4.70;99.90
5258;DHT22;2651;51.594;9.928;2022-11-27T06:39:00;4.70;99.90
5258;DHT22;2651;51.594;9.928;2022-11-27T06:40:02;4.70;99.90
5258;DHT22;2651;51.594;9.928;2022-11-27T06:41:09;4.80;99.90
5258;DHT22;2651;51.594;9.928;2022-11-27T06:42:11;4.80;99.90
5258;DHT22;2651;51.594;9.928;2022-11-27T06:43:13;4.80;99.90
5258;DHT22;2651;51.594;9.928;2022-11-27T06:44:14;4.80;99.90
5258;DHT22;2651;51.594;9.928;2022-11-27T06:45:16;4.90;99.90
5258;DHT22;2651;51.594;9.928;2022-11-27T06:46:20;4.90;99.90
5258;DHT22;2651;51.594;9.928;2022-11-27T06:47:22;4.90;99.90
5258;DHT22;2651;51.594;9.928;2022-11-27T06:48:24;4.90;99.90
5258;DHT22;2651;51.594;9.928;2022-11-27T06:49:25;4.90;99.90
5258;DHT22;2651;51.594;9.928;2022-11-27T06:50:27;4.90;99.90
5258;DHT22;2651;51.594;9.928;2022-11-27T06:51:30;5.00;99.90
5258;DHT22;2651;51.594;9.928;2022-11-27T06:52:32;5.00;99.90
5258;DHT22;2651;51.594;9.928;2022-11-27T06:53:41;4.90;99.90
5258;DHT22;2651;51.594;9.928;2022-11-27T06:54:43;5.00;99.90
5258;DHT22;2651;51.594;9.928;2022-11-27T06:55:44;5.00;99.90
5258;DHT22;2651;51.594;9.928;2022-11-27T06:56:49;5.00;99.90
5258;DHT22;2651;51.594;9.928;2022-11-27T06:57:51;5.00;99.90
5258;DHT22;2651;51.594;9.928;2022-11-27T06:58:54;5.00;99.90
5258;DHT22;2651;51.594;9.928;2022-11-27T06:59:56;5.00;99.90
5258;DHT22;2651;51.594;9.928;2022-11-27T07:01:00;5.00;99.90
5258;DHT22;2651;51.594;9.928;2022-11-27T07:02:02;5.00;99.90
5258;DHT22;2651;51.594;9.928;2022-11-27T07:03:03;5.10;99.90
5258;DHT22;2651;51.594;9.928;2022-11-27T07:04:05;5.10;99.90
5258;DHT22;2651;51.594;9.928;2022-11-27T07:05:07;5.10;99.90
5258;DHT22;2651;51.594;9.928;2022-11-27T07:06:12;5.10;99.90
5258;DHT22;2651;51.594;9.928;2022-11-27T07:07:14;5.10;99.90
5258;DHT22;2651;51.594;9.928;2022-11-27T07:08:16;5.10;99.90
5258;DHT22;2651;51.594;9.928;2022-11-27T07:09:18;5.10;99.90
5258;DHT22;2651;51.594;9.928;2022-11-27T07:10:20;5.20;99.90
5258;DHT22;2651;51.594;9.928;2022-11-27T07:11:24;5.10;99.90
5258;DHT22;2651;51.594;9.928;2022-11-27T07:12:26;5.10;99.90
5258;DHT22;2651;51.594;9.928;2022-11-27T07:13:29;5.10;99.90
5258;DHT22;2651;51.594;9.928;2022-11-27T07:14:30;5.10;99.90
5258;DHT22;2651;51.594;9.928;2022-11-27T07:15:32;5.20;99.90
5258;DHT22;2651;51.594;9.928;2022-11-27T07:16:35;5.20;99.90
5258;DHT22;2651;51.594;9.928;2022-11-27T07:17:37;5.20;99.90
5258;DHT22;2651;51.594;9.928;2022-11-27T07:18:41;5.20;99.90
5258;DHT22;2651;51.594;9.928;2022-11-27T07:19:43;5.20;99.90
5258;DHT22;2651;51.594;9.928;2022-11-27T07:20:50;5.20;99.90
5258;DHT22;2651;51.594;9.928;2022-11-27T07:21:57;5.20;99.90
5258;DHT22;2651;51.594;9.928;2022-11-27T07:22:58;5.20;99.90
5258;DHT22;2651;51.594;9.928;2022-11-27T07:24:00;5.20;99.90
5258;DHT22;2651;51.594;9.928;2022-11-27T07:25:02;5.20;99.90
5258;DHT22;2651;51.594;9.928;2022-11-27T07:26:12;5.20;99.90
5258;DHT22;2651;51.594;9.928;2022-11-27T07:27:14;5.20;99.90